createdAt,value
2022-11-12T00:00:56.591Z,7.78
2022-11-12T00:03:23.001Z,7.85
2022-11-12T00:05:50.637Z,7.87
2022-11-12T00:08:17.926Z,7.83
2022-11-12T00:10:45.254Z,5.99
2022-11-12T00:13:11.696Z,7.23
2022-11-12T00:15:38.532Z,4.65
2022-11-12T00:18:05.166Z,7.28
2022-11-12T00:20:31.562Z,7.58
2022-11-12T00:22:58.011Z,7.68
2022-11-12T00:25:24.748Z,7.70
2022-11-12T00:27:51.141Z,5.82
2022-11-12T00:30:17.631Z,7.30
2022-11-12T00:32:44.054Z,7.12
2022-11-12T00:35:13.704Z,7.08
2022-11-12T00:37:40.666Z,7.49
2022-11-12T00:40:08.325Z,7.54
2022-11-12T00:42:34.770Z,7.60
2022-11-12T00:45:01.223Z,7.66
2022-11-12T00:47:27.614Z,7.63
2022-11-12T00:49:54.028Z,7.26
2022-11-12T00:52:20.405Z,7.47
2022-11-12T00:54:46.889Z,7.54
2022-11-12T00:57:13.289Z,7.60
2022-11-12T00:59:39.729Z,7.60
2022-11-12T01:02:06.121Z,7.61
2022-11-12T01:04:33.059Z,7.54
2022-11-12T01:06:59.472Z,7.38
2022-11-12T01:09:26.061Z,7.55
2022-11-12T01:11:52.471Z,7.54
2022-11-12T01:14:18.910Z,7.61
2022-11-12T01:16:45.317Z,7.50
2022-11-12T01:19:13.652Z,7.58
2022-11-12T01:21:42.915Z,7.61
2022-11-12T01:24:10.522Z,7.33
2022-11-12T01:26:37.824Z,6.43
2022-11-12T01:29:04.790Z,6.92
2022-11-12T01:31:36.768Z,7.42
2022-11-12T01:34:06.265Z,7.47
2022-11-12T01:36:38.082Z,7.50
2022-11-12T01:39:06.599Z,7.50
2022-11-12T01:41:35.625Z,7.52
2022-11-12T01:44:10.754Z,7.42
2022-11-12T01:46:57.240Z,7.44
2022-11-12T01:49:31.055Z,7.27
2022-11-12T01:52:03.925Z,7.29
2022-11-12T01:54:31.228Z,7.34
2022-11-12T01:56:58.528Z,7.46
2022-11-12T01:59:30.272Z,7.45
2022-11-12T02:01:56.849Z,7.39
2022-11-12T02:04:23.834Z,7.52
2022-11-12T02:06:52.321Z,7.51
2022-11-12T02:09:19.492Z,7.43
2022-11-12T02:11:46.148Z,7.42
2022-11-12T02:14:13.376Z,7.42
2022-11-12T02:16:45.798Z,7.43
2022-11-12T02:19:15.598Z,7.41
2022-11-12T02:21:42.912Z,7.41
2022-11-12T02:24:12.048Z,7.41
2022-11-12T02:26:41.770Z,7.40
2022-11-12T02:29:08.156Z,7.42
2022-11-12T02:31:34.974Z,7.34
2022-11-12T02:34:01.955Z,7.35
2022-11-12T02:36:29.341Z,7.43
2022-11-12T02:38:55.775Z,7.29
2022-11-12T02:41:22.732Z,6.77
2022-11-12T02:43:49.426Z,6.05
2022-11-12T02:46:16.110Z,7.03
2022-11-12T02:48:42.571Z,5.78
2022-11-12T02:51:09.083Z,6.84
2022-11-12T02:53:35.516Z,6.95
2022-11-12T02:56:02.147Z,7.23
2022-11-12T02:58:29.424Z,7.24
2022-11-12T03:00:57.020Z,7.23
2022-11-12T03:03:23.655Z,7.22
2022-11-12T03:05:58.273Z,7.34
2022-11-12T03:08:25.855Z,7.26
2022-11-12T03:10:53.161Z,7.20
2022-11-12T03:13:21.035Z,4.73
2022-11-12T03:15:47.719Z,5.44
2022-11-12T03:18:14.174Z,4.92
2022-11-12T03:20:40.585Z,6.54
2022-11-12T03:23:09.660Z,6.98
2022-11-12T03:25:36.316Z,7.07
2022-11-12T03:28:06.630Z,7.15
2022-11-12T03:30:35.517Z,6.21
2022-11-12T03:33:02.376Z,6.93
2022-11-12T03:35:28.921Z,6.98
2022-11-12T03:37:55.432Z,7.13
2022-11-12T03:40:22.123Z,7.13
2022-11-12T03:42:50.313Z,6.06
2022-11-12T03:45:17.577Z,6.86
2022-11-12T03:47:45.712Z,6.25
2022-11-12T03:50:13.974Z,6.96
2022-11-12T03:52:45.803Z,7.04
2022-11-12T03:55:13.310Z,7.08
2022-11-12T03:57:40.350Z,7.14
2022-11-12T04:00:08.149Z,7.00
2022-11-12T04:02:34.634Z,7.07
2022-11-12T04:05:19.710Z,7.08
2022-11-12T04:08:07.937Z,7.05
2022-11-12T04:10:35.669Z,7.17
2022-11-12T04:13:20.496Z,7.15
2022-11-12T04:16:06.922Z,7.15
2022-11-12T04:18:51.765Z,7.07
2022-11-12T04:21:37.072Z,7.04
2022-11-12T04:24:03.625Z,7.13
2022-11-12T04:26:30.069Z,7.05
2022-11-12T04:29:14.934Z,7.04
2022-11-12T04:31:41.354Z,7.06
2022-11-12T04:34:33.715Z,7.12
2022-11-12T04:37:04.582Z,7.05
2022-11-12T04:39:31.644Z,6.18
2022-11-12T04:42:17.143Z,6.84
2022-11-12T04:45:03.641Z,6.87
2022-11-12T04:47:33.514Z,7.06
2022-11-12T04:50:00.225Z,5.41
2022-11-12T04:52:28.287Z,6.59
2022-11-12T04:54:55.262Z,6.89
2022-11-12T04:57:22.278Z,6.85
2022-11-12T04:59:48.762Z,6.93
2022-11-12T05:02:17.276Z,7.03
2022-11-12T05:04:43.817Z,6.95
2022-11-12T05:07:10.675Z,6.99
2022-11-12T05:09:37.888Z,6.93
2022-11-12T05:12:04.754Z,6.92
2022-11-12T05:14:31.280Z,6.85
2022-11-12T05:16:57.823Z,6.81
2022-11-12T05:19:24.250Z,6.96
2022-11-12T05:22:05.559Z,6.94
2022-11-12T05:24:41.883Z,6.93
2022-11-12T05:27:20.409Z,6.88
2022-11-12T05:29:47.053Z,6.79
2022-11-12T05:32:15.792Z,6.94
2022-11-12T05:34:42.424Z,6.93
2022-11-12T05:37:10.130Z,6.91
2022-11-12T05:39:36.557Z,6.97
2022-11-12T05:42:12.816Z,6.87
2022-11-12T05:44:40.121Z,6.89
2022-11-12T05:47:06.634Z,6.86
2022-11-12T05:49:33.081Z,6.88
2022-11-12T05:51:59.485Z,6.90
2022-11-12T05:54:26.013Z,6.90
2022-11-12T05:56:53.572Z,6.85
2022-11-12T05:59:20.113Z,6.92
2022-11-12T06:01:46.570Z,6.86
2022-11-12T06:04:14.784Z,6.81
2022-11-12T06:06:42.544Z,6.87
2022-11-12T06:09:10.242Z,6.85
2022-11-12T06:11:37.604Z,6.84
2022-11-12T06:14:05.052Z,6.74
2022-11-12T06:16:32.068Z,6.83
2022-11-12T06:18:58.900Z,5.90
2022-11-12T06:21:27.576Z,6.63
2022-11-12T06:23:56.971Z,6.74
2022-11-12T06:26:25.325Z,6.76
2022-11-12T06:28:52.330Z,6.16
2022-11-12T06:31:19.920Z,6.48
2022-11-12T06:33:47.074Z,6.66
2022-11-12T06:36:15.814Z,6.68
2022-11-12T06:38:42.723Z,6.61
2022-11-12T06:41:10.897Z,6.67
2022-11-12T06:43:38.179Z,6.71
2022-11-12T06:46:13.885Z,6.74
2022-11-12T06:48:41.249Z,6.67
2022-11-12T06:51:17.782Z,6.70
2022-11-12T06:53:45.829Z,6.68
2022-11-12T06:56:13.233Z,6.60
2022-11-12T06:58:40.148Z,6.76
2022-11-12T07:01:17.246Z,6.70
2022-11-12T07:03:44.440Z,6.72
2022-11-12T07:06:13.512Z,6.71
2022-11-12T07:08:40.653Z,5.47
2022-11-12T07:11:07.777Z,6.44
2022-11-12T07:13:35.331Z,6.60
2022-11-12T07:16:02.629Z,5.19
2022-11-12T07:18:29.756Z,6.28
2022-11-12T07:21:01.193Z,6.51
2022-11-12T07:23:29.814Z,6.55
2022-11-12T07:26:03.862Z,6.61
2022-11-12T07:28:31.070Z,6.55
2022-11-12T07:31:00.307Z,6.50
2022-11-12T07:33:28.094Z,6.58
2022-11-12T07:36:02.738Z,6.58
2022-11-12T07:38:31.012Z,6.59
2022-11-12T07:41:10.926Z,6.57
2022-11-12T07:43:38.478Z,6.54
2022-11-12T07:46:13.013Z,6.57
2022-11-12T07:48:40.134Z,6.51
2022-11-12T07:51:27.985Z,5.99
2022-11-12T07:53:59.472Z,6.41
2022-11-12T07:56:28.621Z,6.43
2022-11-12T07:58:55.037Z,6.54
2022-11-12T08:01:36.346Z,6.54
2022-11-12T08:04:05.924Z,6.46
2022-11-12T08:06:32.740Z,6.54
2022-11-12T08:09:01.133Z,6.40
2022-11-12T08:11:27.786Z,6.41
2022-11-12T08:13:54.511Z,6.29
2022-11-12T08:16:20.925Z,6.36
2022-11-12T08:18:47.496Z,6.55
2022-11-12T08:21:15.973Z,6.60
2022-11-12T08:23:42.704Z,6.80
2022-11-12T08:26:12.013Z,6.86
2022-11-12T08:28:38.955Z,6.62
2022-11-12T08:31:11.559Z,6.88
2022-11-12T08:33:38.867Z,6.78
2022-11-12T08:36:08.085Z,6.71
2022-11-12T08:38:34.785Z,6.83
2022-11-12T08:41:07.294Z,6.76
2022-11-12T08:43:33.737Z,6.62
2022-11-12T08:46:02.368Z,6.66
2022-11-12T08:48:30.266Z,6.65
2022-11-12T08:50:57.825Z,6.69
2022-11-12T08:53:25.256Z,6.62
2022-11-12T08:55:55.984Z,6.65
2022-11-12T08:58:23.249Z,6.53
2022-11-12T09:00:50.931Z,6.51
2022-11-12T09:03:20.028Z,6.64
2022-11-12T09:05:46.541Z,7.13
2022-11-12T09:08:19.505Z,7.03
2022-11-12T09:10:46.771Z,8.01
2022-11-12T09:13:14.132Z,7.66
2022-11-12T09:15:41.052Z,7.11
2022-11-12T09:18:11.709Z,6.92
2022-11-12T09:20:38.165Z,7.07
2022-11-12T09:23:13.148Z,7.24
2022-11-12T09:25:40.625Z,7.94
2022-11-12T09:28:17.925Z,8.28
2022-11-12T09:30:47.178Z,7.39
2022-11-12T09:33:17.387Z,7.72
2022-11-12T09:35:45.568Z,7.39
2022-11-12T09:38:12.388Z,7.76
2022-11-12T09:40:48.702Z,7.65
2022-11-12T09:43:25.449Z,7.72
2022-11-12T09:46:13.580Z,7.44
2022-11-12T09:48:45.678Z,7.70
2022-11-12T09:51:28.435Z,7.41
2022-11-12T09:53:59.968Z,7.19
2022-11-12T09:56:28.330Z,7.20
2022-11-12T09:58:54.899Z,7.18
2022-11-12T10:01:43.378Z,7.04
2022-11-12T10:04:28.459Z,7.12
2022-11-12T10:07:24.825Z,7.35
2022-11-12T10:10:20.640Z,7.19
2022-11-12T10:12:56.115Z,7.02
2022-11-12T10:15:50.430Z,6.98
2022-11-12T10:18:33.044Z,7.12
2022-11-12T10:21:26.011Z,7.37
2022-11-12T10:23:53.609Z,7.72
2022-11-12T10:26:23.117Z,8.15
2022-11-12T10:29:11.390Z,8.10
2022-11-12T10:31:38.112Z,7.43
2022-11-12T10:34:13.810Z,7.31
2022-11-12T10:36:45.353Z,7.45
2022-11-12T10:39:31.498Z,7.18
2022-11-12T10:42:07.855Z,7.19
2022-11-12T10:44:34.712Z,7.08
2022-11-12T10:47:42.863Z,7.22
2022-11-12T10:50:15.094Z,7.51
2022-11-12T10:52:53.818Z,7.88
2022-11-12T10:55:29.762Z,8.56
2022-11-12T10:58:22.320Z,8.82
2022-11-12T11:00:55.429Z,8.08
2022-11-12T11:03:25.189Z,8.57
2022-11-12T11:06:02.289Z,8.57
2022-11-12T11:08:39.304Z,7.93
2022-11-12T11:11:19.766Z,7.60
2022-11-12T11:13:52.850Z,7.35
2022-11-12T11:16:27.142Z,8.21
2022-11-12T11:19:03.942Z,8.38
2022-11-12T11:22:25.873Z,7.94
2022-11-12T11:25:23.100Z,8.02
2022-11-12T11:28:08.670Z,8.27
2022-11-12T11:30:44.495Z,8.26
2022-11-12T11:33:48.690Z,8.76
2022-11-12T11:36:39.865Z,8.54
2022-11-12T11:39:34.246Z,8.64
2022-11-12T11:42:03.664Z,8.61
2022-11-12T11:44:48.037Z,8.18
2022-11-12T11:47:59.994Z,8.48
2022-11-12T11:50:35.748Z,7.93
2022-11-12T11:53:18.791Z,8.22
2022-11-12T11:55:57.510Z,8.52
2022-11-12T11:58:47.967Z,9.35
2022-11-12T12:01:46.713Z,9.68
2022-11-12T12:04:50.040Z,9.06
2022-11-12T12:07:25.678Z,9.29
2022-11-12T12:10:09.317Z,9.31
2022-11-12T12:12:39.091Z,8.92
2022-11-12T12:15:27.504Z,8.88
2022-11-12T12:18:20.205Z,8.72
2022-11-12T12:21:09.494Z,8.62
2022-11-12T12:23:45.864Z,8.54
2022-11-12T12:26:21.237Z,8.46
2022-11-12T12:28:55.889Z,8.57
2022-11-12T12:31:28.374Z,8.53
2022-11-12T12:34:04.679Z,8.93
2022-11-12T12:36:43.536Z,8.93
2022-11-12T12:39:25.543Z,9.09
2022-11-12T12:42:35.566Z,8.82
2022-11-12T12:45:35.612Z,8.89
2022-11-12T12:48:05.965Z,8.94
2022-11-12T12:50:33.892Z,8.64
2022-11-12T12:53:17.861Z,7.99
2022-11-12T12:55:47.220Z,7.84
2022-11-12T12:58:31.817Z,8.28
2022-11-12T13:01:02.978Z,8.82
2022-11-12T13:03:44.836Z,9.15
2022-11-12T13:06:23.225Z,9.16
2022-11-12T13:09:20.878Z,8.73
2022-11-12T13:12:04.461Z,8.20
2022-11-12T13:14:37.067Z,8.24
2022-11-12T13:17:08.260Z,8.36
2022-11-12T13:19:37.914Z,8.48
2022-11-12T13:22:19.587Z,8.51
2022-11-12T13:25:07.837Z,8.44
2022-11-12T13:27:40.406Z,8.65
2022-11-12T13:30:20.669Z,8.83
2022-11-12T13:32:47.047Z,8.82
2022-11-12T13:35:22.189Z,8.83
2022-11-12T13:38:15.402Z,8.68
2022-11-12T13:41:08.716Z,9.09
2022-11-12T13:43:49.209Z,9.25
2022-11-12T13:46:27.413Z,9.37
2022-11-12T13:48:59.574Z,9.33
2022-11-12T13:51:38.535Z,9.17
2022-11-12T13:54:31.356Z,9.40
2022-11-12T13:57:14.500Z,9.37
2022-11-12T13:59:41.071Z,9.44
2022-11-12T14:02:21.151Z,9.26
2022-11-12T14:04:48.162Z,9.29
2022-11-12T14:07:29.479Z,9.00
2022-11-12T14:10:45.887Z,9.18
2022-11-12T14:13:15.283Z,8.94
2022-11-12T14:15:47.947Z,9.08
2022-11-12T14:18:43.371Z,8.82
2022-11-12T14:21:16.604Z,8.86
2022-11-12T14:23:47.821Z,8.86
2022-11-12T14:26:33.190Z,8.81
2022-11-12T14:29:00.142Z,8.78
2022-11-12T14:31:26.683Z,8.67
2022-11-12T14:33:53.212Z,8.41
2022-11-12T14:36:20.452Z,8.41
2022-11-12T14:38:51.038Z,8.66
2022-11-12T14:41:35.214Z,8.41
2022-11-12T14:44:12.541Z,8.25
2022-11-12T14:46:53.969Z,8.20
2022-11-12T14:49:43.997Z,8.17
2022-11-12T14:52:18.541Z,8.26
2022-11-12T14:54:54.859Z,8.31
2022-11-12T14:57:27.721Z,8.25
2022-11-12T14:59:54.585Z,8.09
2022-11-12T15:02:39.087Z,8.17
2022-11-12T15:05:17.703Z,8.18
2022-11-12T15:07:54.857Z,8.11
2022-11-12T15:10:32.371Z,8.16
2022-11-12T15:13:08.149Z,8.15
2022-11-12T15:15:38.061Z,8.12
2022-11-12T15:18:07.535Z,8.16
2022-11-12T15:20:34.161Z,8.10
2022-11-12T15:23:00.990Z,8.21
2022-11-12T15:25:30.481Z,8.16
2022-11-12T15:28:21.700Z,8.16
2022-11-12T15:31:17.516Z,8.06
2022-11-12T15:33:43.986Z,8.16
2022-11-12T15:36:19.330Z,8.18
2022-11-12T15:38:51.035Z,8.25
2022-11-12T15:41:33.833Z,8.24
2022-11-12T15:44:00.351Z,8.18
2022-11-12T15:46:27.009Z,8.18
2022-11-12T15:48:56.176Z,8.14
2022-11-12T15:51:23.104Z,8.16
2022-11-12T15:53:49.558Z,8.11
2022-11-12T15:56:20.598Z,8.18
2022-11-12T15:58:47.026Z,8.08
2022-11-12T16:01:13.776Z,8.18
2022-11-12T16:03:40.206Z,8.23
2022-11-12T16:06:09.346Z,8.19
2022-11-12T16:08:35.993Z,8.16
2022-11-12T16:11:02.504Z,8.15
2022-11-12T16:13:36.067Z,8.17
2022-11-12T16:16:06.350Z,8.16
2022-11-12T16:18:32.798Z,8.17
2022-11-12T16:20:59.198Z,8.18
2022-11-12T16:23:25.907Z,8.16
2022-11-12T16:25:52.647Z,8.16
2022-11-12T16:28:19.400Z,8.13
2022-11-12T16:30:50.547Z,8.15
2022-11-12T16:33:16.940Z,8.12
2022-11-12T16:35:43.376Z,8.15
2022-11-12T16:38:14.567Z,8.12
2022-11-12T16:40:42.019Z,8.10
2022-11-12T16:43:08.495Z,8.10
2022-11-12T16:45:38.539Z,8.17
2022-11-12T16:48:13.097Z,8.16
2022-11-12T16:50:39.557Z,8.21
2022-11-12T16:53:05.991Z,8.05
2022-11-12T16:55:32.416Z,8.05
2022-11-12T16:57:58.840Z,8.13
2022-11-12T17:00:25.413Z,8.08
2022-11-12T17:02:53.524Z,8.16
2022-11-12T17:05:25.617Z,8.16
2022-11-12T17:07:57.334Z,8.14
2022-11-12T17:10:24.102Z,8.15
2022-11-12T17:12:51.777Z,8.11
2022-11-12T17:15:18.468Z,8.10
2022-11-12T17:17:44.925Z,8.02
2022-11-12T17:20:11.368Z,8.17
2022-11-12T17:22:37.822Z,8.12
2022-11-12T17:25:05.782Z,8.11
2022-11-12T17:27:32.173Z,8.10
2022-11-12T17:29:58.618Z,8.11
2022-11-12T17:32:25.071Z,8.06
2022-11-12T17:34:51.470Z,8.10
2022-11-12T17:37:17.857Z,8.09
2022-11-12T17:39:44.592Z,8.07
2022-11-12T17:42:10.977Z,8.05
2022-11-12T17:44:37.432Z,8.07
2022-11-12T17:47:04.010Z,8.13
2022-11-12T17:49:30.476Z,8.14
2022-11-12T17:51:56.942Z,8.12
2022-11-12T17:54:24.010Z,8.12
2022-11-12T17:56:50.430Z,7.71
2022-11-12T17:59:16.846Z,7.90
2022-11-12T18:01:44.083Z,8.01
2022-11-12T18:04:10.613Z,8.03
2022-11-12T18:06:37.113Z,8.00
2022-11-12T18:09:11.844Z,8.04
2022-11-12T18:11:50.343Z,8.03
2022-11-12T18:14:17.123Z,8.02
2022-11-12T18:16:43.533Z,7.99
2022-11-12T18:19:11.149Z,8.02
2022-11-12T18:21:40.026Z,8.03
2022-11-12T18:24:11.851Z,8.06
2022-11-12T18:26:39.011Z,8.03
2022-11-12T18:29:05.718Z,7.76
2022-11-12T18:31:32.594Z,7.89
2022-11-12T18:33:59.033Z,7.97
2022-11-12T18:36:26.045Z,7.97
2022-11-12T18:38:54.651Z,8.02
2022-11-12T18:41:25.782Z,7.96
2022-11-12T18:43:53.394Z,7.94
2022-11-12T18:46:19.868Z,7.92
2022-11-12T18:48:47.327Z,7.88
2022-11-12T18:51:15.928Z,7.99
2022-11-12T18:53:43.018Z,7.85
2022-11-12T18:56:15.014Z,7.88
2022-11-12T18:58:41.512Z,7.84
2022-11-12T19:01:12.014Z,7.79
2022-11-12T19:03:38.766Z,7.87
2022-11-12T19:06:06.595Z,7.89
2022-11-12T19:08:33.347Z,7.88
2022-11-12T19:11:05.378Z,7.89
2022-11-12T19:13:32.467Z,7.90
2022-11-12T19:16:17.083Z,7.85
2022-11-12T19:18:44.188Z,7.86
2022-11-12T19:21:22.574Z,7.85
2022-11-12T19:23:53.796Z,7.82
2022-11-12T19:26:22.155Z,7.85
2022-11-12T19:28:49.018Z,7.79
2022-11-12T19:31:23.861Z,7.82
2022-11-12T19:33:50.732Z,7.80
2022-11-12T19:36:20.546Z,7.78
2022-11-12T19:38:46.928Z,7.77
2022-11-12T19:41:19.402Z,7.81
2022-11-12T19:43:46.511Z,7.81
2022-11-12T19:46:13.432Z,7.28
2022-11-12T19:48:40.178Z,7.69
2022-11-12T19:51:09.123Z,7.77
2022-11-12T19:53:38.518Z,7.84
2022-11-12T19:56:06.608Z,7.79
2022-11-12T19:58:33.436Z,7.84
2022-11-12T20:01:08.285Z,7.72
2022-11-12T20:03:35.842Z,7.76
2022-11-12T20:06:05.490Z,7.76
2022-11-12T20:08:32.428Z,7.79
2022-11-12T20:10:59.635Z,7.83
2022-11-12T20:13:26.078Z,7.81
2022-11-12T20:15:52.657Z,7.69
2022-11-12T20:18:19.373Z,7.78
2022-11-12T20:20:48.561Z,7.70
2022-11-12T20:23:14.999Z,7.71
2022-11-12T20:25:41.506Z,7.75
2022-11-12T20:28:08.322Z,7.76
2022-11-12T20:30:35.279Z,7.68
2022-11-12T20:33:01.719Z,7.80
2022-11-12T20:35:28.233Z,7.76
2022-11-12T20:37:54.614Z,7.68
2022-11-12T20:40:21.210Z,7.77
2022-11-12T20:42:47.626Z,7.79
2022-11-12T20:45:14.063Z,7.78
2022-11-12T20:47:40.455Z,7.80
2022-11-12T20:50:07.060Z,7.76
2022-11-12T20:52:33.428Z,7.76
2022-11-12T20:54:59.857Z,7.68
2022-11-12T20:57:26.237Z,7.71
2022-11-12T20:59:52.643Z,7.71
2022-11-12T21:02:19.041Z,7.72
2022-11-12T21:04:45.466Z,7.76
2022-11-12T21:07:12.393Z,7.81
2022-11-12T21:09:38.846Z,7.80
2022-11-12T21:12:05.657Z,7.79
2022-11-12T21:14:32.095Z,7.47
2022-11-12T21:16:58.481Z,7.50
2022-11-12T21:19:24.884Z,7.68
2022-11-12T21:21:51.338Z,7.69
2022-11-12T21:24:17.770Z,7.73
2022-11-12T21:26:44.192Z,7.71
2022-11-12T21:29:10.602Z,7.73
2022-11-12T21:31:37.275Z,7.76
2022-11-12T21:34:04.437Z,7.69
2022-11-12T21:36:34.029Z,7.64
2022-11-12T21:39:00.458Z,7.69
2022-11-12T21:41:28.928Z,7.71
2022-11-12T21:43:55.543Z,7.70
2022-11-12T21:46:27.098Z,7.67
2022-11-12T21:48:55.463Z,7.68
2022-11-12T21:51:27.316Z,7.72
2022-11-12T21:53:56.008Z,7.79
2022-11-12T21:56:23.247Z,7.58
2022-11-12T21:58:49.666Z,7.66
2022-11-12T22:01:19.922Z,7.66
2022-11-12T22:03:47.812Z,7.65
2022-11-12T22:06:14.254Z,7.66
2022-11-12T22:08:41.828Z,7.68
2022-11-12T22:11:11.009Z,7.61
2022-11-12T22:13:38.027Z,7.64
2022-11-12T22:16:08.130Z,7.72
2022-11-12T22:18:35.382Z,7.73
2022-11-12T22:21:04.818Z,7.64
2022-11-12T22:23:37.875Z,7.69
2022-11-12T22:26:11.305Z,7.56
2022-11-12T22:28:37.820Z,7.63
2022-11-12T22:31:08.364Z,7.70
2022-11-12T22:33:35.489Z,7.73
2022-11-12T22:36:06.964Z,7.66
2022-11-12T22:38:39.146Z,7.65
2022-11-12T22:41:08.055Z,7.63
2022-11-12T22:43:36.599Z,7.66
2022-11-12T22:46:05.140Z,7.63
2022-11-12T22:48:31.854Z,7.68
2022-11-12T22:51:02.790Z,7.14
2022-11-12T22:53:29.915Z,6.86
2022-11-12T22:56:05.262Z,7.48
2022-11-12T22:58:36.133Z,7.59
2022-11-12T23:01:05.226Z,6.71
2022-11-12T23:03:32.646Z,6.14
2022-11-12T23:06:00.629Z,6.25
2022-11-12T23:08:27.757Z,6.40
2022-11-12T23:10:54.964Z,6.67
2022-11-12T23:13:23.013Z,7.30
2022-11-12T23:15:49.396Z,7.45
2022-11-12T23:18:16.176Z,7.52
2022-11-12T23:20:42.591Z,7.48
2022-11-12T23:23:09.132Z,7.40
2022-11-12T23:25:36.128Z,7.07
2022-11-12T23:28:02.753Z,6.41
2022-11-12T23:30:29.557Z,6.20
2022-11-12T23:32:55.930Z,6.13
2022-11-12T23:35:22.329Z,5.79
2022-11-12T23:37:48.706Z,6.73
2022-11-12T23:40:15.484Z,6.21
2022-11-12T23:42:41.965Z,6.53
2022-11-12T23:45:09.088Z,6.83
2022-11-12T23:47:35.721Z,6.77
2022-11-12T23:50:02.142Z,6.46
2022-11-12T23:52:28.518Z,6.19
2022-11-12T23:54:54.992Z,6.27
2022-11-12T23:57:21.393Z,6.84
2022-11-12T23:59:47.837Z,7.27
